Time;durP1;ratioP1;P1;durP2;ratioP2;P2;SDS_P1;SDS_P2;PMS_P1;PMS_P2;Temp;Humidity;BMP_temperature;BMP_pressure;BME280_temperature;BME280_humidity;BME280_pressure;Samples;Min_cycle;Max_cycle;Signal;HPM_P1;HPM_P2
2022/12/05 00:00:33;;;;;;;;;;;;;;;11.35;69.78;101547.69;1261321;23;599;-72
2022/12/05 00:01:23;;;;;;;;;;;;;;;11.36;70.29;101540.53;1262125;23;614;-72
2022/12/05 00:02:14;;;;;;;;;;;;;;;11.34;69.68;101551.28;1260530;23;1909;-71
2022/12/05 00:03:04;;;;;;;;;;;;;;;11.34;70.25;101542.44;1261260;23;641;-72
2022/12/05 00:03:55;;;;;;;;;;;;;;;11.33;70.43;101538.91;1261319;23;638;-72
2022/12/05 00:04:45;;;;;;;;;;;;;;;11.32;69.81;101547.84;1261313;23;654;-72
2022/12/05 00:05:36;;;;;;;;;;;;;;;11.32;69.65;101550.50;1261381;23;708;-72
2022/12/05 00:06:26;;;;;;;;;;;;;;;11.32;70.17;101539.84;1256698;23;672;-72
2022/12/05 00:07:16;;;;;;;;;;;;;;;11.33;70.23;101554.91;1255013;23;676;-72
2022/12/05 00:08:07;;;;;;;;;;;;;;;11.32;69.97;101550.50;1261050;23;666;-72
2022/12/05 00:08:57;;;;;;;;;;;;;;;11.32;69.95;101541.66;1262201;23;646;-73
2022/12/05 00:09:48;;;;;;;;;;;;;;;11.33;70.46;101554.03;1261113;23;618;-73
2022/12/05 00:10:38;;;;;;;;;;;;;;;11.33;69.81;101554.03;1261288;23;610;-72
2022/12/05 00:11:29;;;;;;;;;;;;;;;11.34;69.54;101553.09;1261347;23;633;-73
2022/12/05 00:12:19;;;;;;;;;;;;;;;11.34;70.17;101550.44;1262276;23;629;-73
2022/12/05 00:13:09;;;;;;;;;;;;;;;11.33;69.92;101544.22;1261118;23;660;-72
2022/12/05 00:14:00;;;;;;;;;;;;;;;11.34;70.20;101542.44;1261306;23;611;-73
2022/12/05 00:14:50;;;;;;;;;;;;;;;11.33;69.93;101536.22;1261175;23;694;-72
2022/12/05 00:15:41;;;;;;;;;;;;;;;11.36;69.50;101548.53;1261439;23;655;-72
2022/12/05 00:16:31;;;;;;;;;;;;;;;11.34;70.01;101543.28;1261490;23;638;-73
2022/12/05 00:17:22;;;;;;;;;;;;;;;11.33;69.45;101544.22;1261352;23;645;-73
2022/12/05 00:18:12;;;;;;;;;;;;;;;11.32;70.13;101545.19;1261304;23;610;-73
2022/12/05 00:19:02;;;;;;;;;;;;;;;11.33;70.19;101548.72;1262142;23;568;-72
2022/12/05 00:19:53;;;;;;;;;;;;;;;11.32;70.08;101553.19;1261324;23;614;-73
2022/12/05 00:20:43;;;;;;;;;;;;;;;11.34;70.02;101553.97;1261103;23;653;-72
2022/12/05 00:21:34;;;;;;;;;;;;;;;11.33;69.69;101551.38;1261298;23;629;-73
2022/12/05 00:22:25;;;;;;;;;;;;;;;11.31;69.91;101556.78;1261066;23;1947;-73
2022/12/05 00:23:16;;;;;;;;;;;;;;;11.32;70.34;101555.00;1261255;23;629;-72
2022/12/05 00:24:06;;;;;;;;;;;;;;;11.34;70.06;101553.09;1256721;23;665;-71
2022/12/05 00:24:57;;;;;;;;;;;;;;;11.32;70.11;101552.31;1254990;23;599;-72
2022/12/05 00:25:47;;;;;;;;;;;;;;;11.32;69.34;101547.84;1261159;23;578;-71
2022/12/05 00:26:37;;;;;;;;;;;;;;;11.32;69.41;101553.19;1261309;23;614;-72
2022/12/05 00:27:28;;;;;;;;;;;;;;;11.32;69.60;101547.00;1261229;23;646;-72
2022/12/05 00:28:18;;;;;;;;;;;;;;;11.31;69.33;101551.47;1261295;23;648;-72
2022/12/05 00:29:09;;;;;;;;;;;;;;;11.31;70.00;101551.47;1262074;23;648;-72
2022/12/05 00:29:59;;;;;;;;;;;;;;;11.32;70.35;101550.50;1261234;23;628;-72
2022/12/05 00:30:49;;;;;;;;;;;;;;;11.31;69.95;101556.78;1262148;23;574;-73
2022/12/05 00:31:40;;;;;;;;;;;;;;;11.32;69.94;101555.00;1261980;23;597;-73
2022/12/05 00:32:30;;;;;;;;;;;;;;;11.33;69.64;101554.91;1261230;23;614;-72
2022/12/05 00:33:21;;;;;;;;;;;;;;;11.32;70.02;101558.53;1261188;23;681;-73
2022/12/05 00:34:11;;;;;;;;;;;;;;;11.31;69.89;101551.47;1256741;23;637;-73
2022/12/05 00:35:02;;;;;;;;;;;;;;;11.32;69.28;101553.19;1255076;23;637;-73
2022/12/05 00:35:52;;;;;;;;;;;;;;;11.31;69.75;101551.47;1261050;23;641;-72
2022/12/05 00:36:42;;;;;;;;;;;;;;;11.31;69.59;101546.13;1261267;23;610;-72
2022/12/05 00:37:33;;;;;;;;;;;;;;;11.32;70.25;101547.84;1261364;23;638;-72
2022/12/05 00:38:23;;;;;;;;;;;;;;;11.33;69.63;101552.25;1261198;23;638;-71
2022/12/05 00:39:14;;;;;;;;;;;;;;;11.32;69.88;101547.84;1261306;23;677;-72
2022/12/05 00:40:04;;;;;;;;;;;;;;;11.32;69.78;101550.50;1262053;23;610;-72
2022/12/05 00:40:55;;;;;;;;;;;;;;;11.32;69.57;101553.19;1261202;23;704;-72
2022/12/05 00:41:45;;;;;;;;;;;;;;;11.32;69.67;101550.50;1261028;23;659;-72
2022/12/05 00:42:35;;;;;;;;;;;;;;;11.32;69.32;101547.00;1256667;23;625;-72
2022/12/05 00:43:26;;;;;;;;;;;;;;;11.33;69.69;101562.06;1254883;23;673;-72
2022/12/05 00:44:16;;;;;;;;;;;;;;;11.33;69.87;101554.91;1261118;23;684;-72
2022/12/05 00:45:07;;;;;;;;;;;;;;;11.33;69.53;101552.25;1261243;23;654;-72
2022/12/05 00:45:57;;;;;;;;;;;;;;;11.33;69.64;101557.56;1261773;23;618;-72
2022/12/05 00:46:47;;;;;;;;;;;;;;;11.34;69.77;101551.28;1262070;23;610;-72
2022/12/05 00:47:38;;;;;;;;;;;;;;;11.36;69.47;101559.22;1261906;23;643;-72
2022/12/05 00:48:28;;;;;;;;;;;;;;;11.34;69.55;101556.63;1261178;23;681;-72
2022/12/05 00:49:19;;;;;;;;;;;;;;;11.34;69.85;101555.78;1260987;23;1071;-72
2022/12/05 00:50:09;;;;;;;;;;;;;;;11.34;69.23;101561.97;1261177;23;676;-72
2022/12/05 00:51:00;;;;;;;;;;;;;;;11.34;69.58;101559.28;1261179;23;653;-72
2022/12/05 00:51:50;;;;;;;;;;;;;;;11.33;69.28;101560.25;1262072;23;661;-72
2022/12/05 00:52:40;;;;;;;;;;;;;;;11.34;69.26;101553.97;1261194;23;650;-72
2022/12/05 00:53:31;;;;;;;;;;;;;;;11.32;69.48;101558.53;1262008;23;665;-72
2022/12/05 00:54:21;;;;;;;;;;;;;;;11.33;69.38;101560.25;1260834;23;638;-72
2022/12/05 00:55:12;;;;;;;;;;;;;;;11.32;70.10;101555.84;1260976;23;622;-72
2022/12/05 00:56:02;;;;;;;;;;;;;;;11.32;69.87;101553.19;1261258;23;650;-72
2022/12/05 00:56:55;;;;;;;;;;;;;;;11.33;70.17;101554.03;1261286;23;654;-72
2022/12/05 00:57:45;;;;;;;;;;;;;;;11.34;69.85;101559.28;1261081;23;685;-72
2022/12/05 00:58:35;;;;;;;;;;;;;;;11.34;69.55;101559.28;1261116;23;662;-72
2022/12/05 00:59:26;;;;;;;;;;;;;;;11.34;69.49;101551.28;1261361;23;673;-71
2022/12/05 01:00:16;;;;;;;;;;;;;;;11.34;69.46;101555.78;1260648;23;665;-71
2022/12/05 01:01:07;;;;;;;;;;;;;;;11.33;69.90;101554.91;1262132;23;835;-72
2022/12/05 01:01:57;;;;;;;;;;;;;;;11.34;70.01;101556.63;1260909;23;1952;-72
2022/12/05 01:02:48;;;;;;;;;;;;;;;11.35;69.60;101557.50;1261251;23;621;-72
2022/12/05 01:03:38;;;;;;;;;;;;;;;11.34;69.86;101555.78;1262124;23;646;-72
2022/12/05 01:04:28;;;;;;;;;;;;;;;11.33;69.55;101554.91;1261248;23;601;-72
2022/12/05 01:05:19;;;;;;;;;;;;;;;11.33;69.63;101557.56;1261097;23;680;-72
2022/12/05 01:06:09;;;;;;;;;;;;;;;11.33;69.48;101554.91;1256636;23;626;-72
2022/12/05 01:07:00;;;;;;;;;;;;;;;11.32;69.82;101553.19;1254952;23;618;-73
2022/12/05 01:07:50;;;;;;;;;;;;;;;11.33;69.53;101549.56;1261013;23;701;-72
2022/12/05 01:08:40;;;;;;;;;;;;;;;11.34;69.85;101556.63;1261158;23;626;-73
2022/12/05 01:09:31;;;;;;;;;;;;;;;11.33;69.56;101557.56;1261269;23;645;-72
2022/12/05 01:10:21;;;;;;;;;;;;;;;11.32;69.92;101547.00;1261169;23;645;-72
2022/12/05 01:11:12;;;;;;;;;;;;;;;11.32;69.72;101552.31;1261216;23;665;-72
2022/12/05 01:12:02;;;;;;;;;;;;;;;11.33;69.41;101551.38;1262025;23;633;-72
2022/12/05 01:12:53;;;;;;;;;;;;;;;11.32;69.85;101550.50;1261969;23;649;-72
2022/12/05 01:13:43;;;;;;;;;;;;;;;11.33;69.17;101554.91;1261169;23;633;-72
2022/12/05 01:14:33;;;;;;;;;;;;;;;11.33;69.56;101548.72;1260551;23;645;-72
2022/12/05 01:15:24;;;;;;;;;;;;;;;11.32;69.27;101547.84;1261173;23;634;-72
2022/12/05 01:16:14;;;;;;;;;;;;;;;11.32;69.78;101552.31;1262279;23;638;-72
2022/12/05 01:17:05;;;;;;;;;;;;;;;11.31;70.16;101550.59;1261340;23;633;-72
2022/12/05 01:17:55;;;;;;;;;;;;;;;11.32;69.86;101547.84;1261221;23;607;-72
2022/12/05 01:18:46;;;;;;;;;;;;;;;11.32;69.28;101544.31;1261958;23;669;-72
2022/12/05 01:19:36;;;;;;;;;;;;;;;11.33;69.33;101551.38;1261209;23;637;-72
2022/12/05 01:20:26;;;;;;;;;;;;;;;11.34;69.39;101553.97;1261873;23;654;-72
2022/12/05 01:21:17;;;;;;;;;;;;;;;11.35;69.32;101554.81;1261300;23;641;-72
2022/12/05 01:22:07;;;;;;;;;;;;;;;11.34;69.72;101553.09;1260991;23;1889;-72
2022/12/05 01:22:58;;;;;;;;;;;;;;;11.34;69.55;101550.44;1261925;23;633;-72
2022/12/05 01:23:48;;;;;;;;;;;;;;;11.33;69.81;101554.91;1261118;23;658;-72
2022/12/05 01:24:39;;;;;;;;;;;;;;;11.33;69.54;101551.38;1261079;23;637;-72
2022/12/05 01:25:29;;;;;;;;;;;;;;;11.33;69.15;101554.91;1261214;23;584;-72
2022/12/05 01:26:19;;;;;;;;;;;;;;;11.33;70.00;101560.25;1261104;23;650;-72
2022/12/05 01:27:10;;;;;;;;;;;;;;;11.35;69.45;101552.16;1261175;23;768;-72
2022/12/05 01:28:00;;;;;;;;;;;;;;;11.34;69.42;101556.63;1261065;23;662;-72
2022/12/05 01:28:51;;;;;;;;;;;;;;;11.35;69.67;101554.81;1262116;23;734;-72
2022/12/05 01:29:41;;;;;;;;;;;;;;;11.33;69.43;101549.56;1262076;23;621;-72
2022/12/05 01:30:32;;;;;;;;;;;;;;;11.34;69.54;101555.78;1261909;23;605;-72
2022/12/05 01:31:22;;;;;;;;;;;;;;;11.34;69.24;101555.78;1261336;23;543;-72
2022/12/05 01:32:12;;;;;;;;;;;;;;;11.32;69.56;101555.84;1261210;23;613;-72
2022/12/05 01:33:03;;;;;;;;;;;;;;;11.32;69.50;101558.53;1261194;23;673;-72
2022/12/05 01:33:53;;;;;;;;;;;;;;;11.33;69.26;101552.25;1261244;23;661;-71
2022/12/05 01:34:44;;;;;;;;;;;;;;;11.34;69.77;101551.28;1261952;23;685;-72
2022/12/05 01:35:34;;;;;;;;;;;;;;;11.33;69.42;101551.38;1261144;23;692;-72
2022/12/05 01:36:25;;;;;;;;;;;;;;;11.32;69.63;101552.31;1261159;23;606;-72
2022/12/05 01:37:15;;;;;;;;;;;;;;;11.32;69.77;101553.19;1261330;23;644;-72
2022/12/05 01:38:05;;;;;;;;;;;;;;;11.32;69.97;101552.31;1261271;23;786;-72
2022/12/05 01:38:56;;;;;;;;;;;;;;;11.32;69.63;101555.84;1261208;23;638;-72
2022/12/05 01:39:46;;;;;;;;;;;;;;;11.32;69.27;101558.53;1256567;23;655;-71
2022/12/05 01:40:37;;;;;;;;;;;;;;;11.32;69.47;101558.53;1254855;23;677;-72
2022/12/05 01:41:27;;;;;;;;;;;;;;;11.32;69.46;101553.19;1260942;23;626;-72
2022/12/05 01:42:18;;;;;;;;;;;;;;;11.32;69.39;101555.84;1261033;23;1889;-72
2022/12/05 01:43:08;;;;;;;;;;;;;;;11.33;69.72;101559.38;1262028;23;637;-72
2022/12/05 01:43:58;;;;;;;;;;;;;;;11.33;69.34;101554.03;1261173;23;559;-72
2022/12/05 01:44:49;;;;;;;;;;;;;;;11.31;69.54;101556.78;1262029;23;613;-72
2022/12/05 01:45:39;;;;;;;;;;;;;;;11.32;69.45;101555.00;1261074;23;603;-72
2022/12/05 01:46:30;;;;;;;;;;;;;;;11.32;69.83;101555.84;1261178;23;685;-71
2022/12/05 01:47:20;;;;;;;;;;;;;;;11.34;69.58;101561.09;1261201;23;660;-72
2022/12/05 01:48:11;;;;;;;;;;;;;;;11.34;69.16;101559.28;1261965;23;657;-71
2022/12/05 01:49:01;;;;;;;;;;;;;;;11.34;69.52;101556.63;1260878;23;1356;-72
2022/12/05 01:49:53;;;;;;;;;;;;;;;11.34;69.16;101567.31;1262014;23;629;-71
2022/12/05 01:50:43;;;;;;;;;;;;;;;11.34;69.95;101553.97;1261164;23;645;-72
2022/12/05 01:51:34;;;;;;;;;;;;;;;11.33;69.45;101560.25;1261059;23;633;-72
2022/12/05 01:52:24;;;;;;;;;;;;;;;11.33;69.49;101560.25;1262127;23;598;-72
2022/12/05 01:53:15;;;;;;;;;;;;;;;11.33;69.87;101562.91;1261056;23;610;-72
2022/12/05 01:54:05;;;;;;;;;;;;;;;11.33;69.57;101568.25;1261101;23;665;-72
2022/12/05 01:54:55;;;;;;;;;;;;;;;11.34;69.15;101561.97;1261052;23;617;-72
2022/12/05 01:55:46;;;;;;;;;;;;;;;11.33;69.49;101562.91;1261908;23;677;-72
2022/12/05 01:56:36;;;;;;;;;;;;;;;11.33;69.48;101560.25;1261190;23;646;-71
2022/12/05 01:57:27;;;;;;;;;;;;;;;11.34;69.59;101563.78;1261129;23;653;-71
2022/12/05 01:58:17;;;;;;;;;;;;;;;11.33;69.25;101560.25;1260611;23;618;-71
2022/12/05 01:59:08;;;;;;;;;;;;;;;11.32;69.94;101563.00;1261979;23;665;-72
2022/12/05 01:59:58;;;;;;;;;;;;;;;11.33;70.06;101554.03;1261105;23;767;-72
2022/12/05 02:00:49;;;;;;;;;;;;;;;11.31;70.04;101567.47;1261167;23;662;-72
2022/12/05 02:01:39;;;;;;;;;;;;;;;11.32;69.15;101555.84;1261173;23;626;-72
2022/12/05 02:02:29;;;;;;;;;;;;;;;11.32;69.66;101561.19;1260932;23;1917;-72
2022/12/05 02:03:20;;;;;;;;;;;;;;;11.33;69.38;101559.38;1261175;23;630;-72
2022/12/05 02:04:10;;;;;;;;;;;;;;;11.31;69.98;101559.47;1261207;23;747;-72
2022/12/05 02:05:01;;;;;;;;;;;;;;;11.32;69.79;101563.00;1261102;23;618;-72
2022/12/05 02:05:51;;;;;;;;;;;;;;;11.31;69.38;101551.47;1261937;23;649;-72
2022/12/05 02:06:41;;;;;;;;;;;;;;;11.31;69.50;101559.47;1261997;23;590;-72
2022/12/05 02:07:32;;;;;;;;;;;;;;;11.32;69.26;101563.00;1261871;23;633;-72
2022/12/05 02:08:22;;;;;;;;;;;;;;;11.31;69.28;101563.94;1261134;23;665;-72
2022/12/05 02:09:13;;;;;;;;;;;;;;;11.30;70.00;101555.06;1261313;23;677;-72
2022/12/05 02:10:03;;;;;;;;;;;;;;;11.31;69.96;101561.28;1261194;23;610;-72
2022/12/05 02:10:54;;;;;;;;;;;;;;;11.31;69.76;101554.13;1261139;23;649;-72
2022/12/05 02:11:44;;;;;;;;;;;;;;;11.32;69.38;101550.50;1261877;23;747;-72
2022/12/05 02:12:35;;;;;;;;;;;;;;;11.32;69.13;101563.00;1261325;23;776;-72
2022/12/05 02:13:25;;;;;;;;;;;;;;;11.32;69.92;101563.00;1261106;23;1059;-72
2022/12/05 02:14:16;;;;;;;;;;;;;;;11.31;70.03;101562.13;1261190;23;647;-71
2022/12/05 02:15:06;;;;;;;;;;;;;;;11.32;69.40;101558.53;1261066;23;649;-72
2022/12/05 02:15:56;;;;;;;;;;;;;;;11.32;69.98;101561.19;1261212;23;594;-71
2022/12/05 02:16:47;;;;;;;;;;;;;;;11.32;69.77;101558.53;1256434;23;645;-71
2022/12/05 02:17:38;;;;;;;;;;;;;;;11.32;69.58;101558.53;1255399;23;634;-71
2022/12/05 02:18:28;;;;;;;;;;;;;;;11.32;69.64;101563.00;1261393;23;637;-71
2022/12/05 02:19:18;;;;;;;;;;;;;;;11.32;69.51;101566.53;1261475;23;670;-71
2022/12/05 02:20:09;;;;;;;;;;;;;;;11.32;69.53;101557.66;1261524;23;649;-72
2022/12/05 02:20:59;;;;;;;;;;;;;;;11.32;69.33;101558.53;1261516;23;594;-71
2022/12/05 02:21:50;;;;;;;;;;;;;;;11.33;69.33;101554.91;1261472;23;657;-71
2022/12/05 02:22:40;;;;;;;;;;;;;;;11.32;69.97;101563.84;1261514;23;688;-72
2022/12/05 02:23:31;;;;;;;;;;;;;;;11.32;69.39;101561.19;1262344;23;625;-72
2022/12/05 02:24:21;;;;;;;;;;;;;;;11.33;69.22;101560.25;1261573;23;661;-72
2022/12/05 02:25:11;;;;;;;;;;;;;;;11.32;69.28;101558.53;1261452;23;665;-72
2022/12/05 02:26:02;;;;;;;;;;;;;;;11.32;69.90;101547.84;1261435;23;637;-72
2022/12/05 02:26:52;;;;;;;;;;;;;;;11.32;70.21;101552.31;1262395;23;613;-72
2022/12/05 02:27:44;;;;;;;;;;;;;;;11.32;69.63;101555.00;1261421;23;602;-72
2022/12/05 02:28:34;;;;;;;;;;;;;;;11.32;69.24;101547.00;1261522;23;630;-72
2022/12/05 02:29:25;;;;;;;;;;;;;;;11.30;69.55;101552.41;1261400;23;669;-72
2022/12/05 02:30:16;;;;;;;;;;;;;;;11.31;69.76;101553.28;1262487;23;637;-71
2022/12/05 02:31:06;;;;;;;;;;;;;;;11.28;69.85;101546.31;1261561;23;574;-71
2022/12/05 02:31:56;;;;;;;;;;;;;;;11.30;69.76;101552.41;1261513;23;684;-71
2022/12/05 02:32:47;;;;;;;;;;;;;;;11.32;69.47;101555.00;1262401;23;676;-71
2022/12/05 02:33:37;;;;;;;;;;;;;;;11.31;69.90;101556.78;1261333;23;658;-71
2022/12/05 02:34:28;;;;;;;;;;;;;;;11.33;69.28;101552.25;1261433;23;658;-71
2022/12/05 02:35:19;;;;;;;;;;;;;;;11.32;69.77;101555.84;1261358;23;614;-71
2022/12/05 02:36:09;;;;;;;;;;;;;;;11.33;69.53;101557.56;1262431;23;645;-71
2022/12/05 02:36:59;;;;;;;;;;;;;;;11.32;69.68;101555.84;1261389;23;661;-71
2022/12/05 02:37:50;;;;;;;;;;;;;;;11.33;69.69;101559.38;1261464;23;696;-71
2022/12/05 02:38:40;;;;;;;;;;;;;;;11.31;69.80;101556.78;1261455;23;692;-71
2022/12/05 02:39:31;;;;;;;;;;;;;;;11.31;69.46;101556.78;1261500;23;626;-71
2022/12/05 02:40:21;;;;;;;;;;;;;;;11.31;69.43;101556.78;1261537;23;571;-71
2022/12/05 02:41:11;;;;;;;;;;;;;;;11.32;69.63;101558.53;1261498;23;602;-71
2022/12/05 02:42:02;;;;;;;;;;;;;;;11.33;69.82;101554.03;1261387;23;1892;-71
2022/12/05 02:42:53;;;;;;;;;;;;;;;11.32;69.81;101566.53;1261399;23;634;-71
2022/12/05 02:43:43;;;;;;;;;;;;;;;11.32;69.62;101555.84;1261403;23;610;-71
2022/12/05 02:44:33;;;;;;;;;;;;;;;11.30;69.54;101557.75;1262357;23;661;-71
2022/12/05 02:45:24;;;;;;;;;;;;;;;11.30;69.23;101555.06;1261471;23;661;-71
2022/12/05 02:46:14;;;;;;;;;;;;;;;11.31;70.08;101554.13;1261405;23;646;-71
2022/12/05 02:47:05;;;;;;;;;;;;;;;11.32;69.40;101553.19;1261421;23;650;-71
2022/12/05 02:47:55;;;;;;;;;;;;;;;11.31;69.43;101556.78;1261651;23;653;-71
2022/12/05 02:48:46;;;;;;;;;;;;;;;11.32;69.09;101557.66;1261575;23;937;-71
2022/12/05 02:49:36;;;;;;;;;;;;;;;11.31;69.61;101558.59;1261473;23;607;-71
2022/12/05 02:50:26;;;;;;;;;;;;;;;11.31;69.23;101555.94;1261501;23;607;-71
2022/12/05 02:51:17;;;;;;;;;;;;;;;11.31;69.18;101551.47;1261465;23;708;-71
2022/12/05 02:52:07;;;;;;;;;;;;;;;11.32;69.26;101555.84;1261516;23;627;-71
2022/12/05 02:52:58;;;;;;;;;;;;;;;11.32;69.33;101552.31;1261453;23;665;-71
2022/12/05 02:53:48;;;;;;;;;;;;;;;11.31;69.75;101551.47;1256635;23;634;-71
2022/12/05 02:54:38;;;;;;;;;;;;;;;11.32;69.40;101560.31;1255183;23;623;-70
2022/12/05 02:55:29;;;;;;;;;;;;;;;11.31;69.74;101562.13;1254756;23;785;-71
2022/12/05 02:56:19;;;;;;;;;;;;;;;11.32;69.35;101558.53;1253663;23;587;-71
2022/12/05 02:57:10;;;;;;;;;;;;;;;11.31;69.30;101554.13;1259878;23;689;-71
2022/12/05 02:58:00;;;;;;;;;;;;;;;11.31;69.81;101559.47;1261441;23;1040;-71
2022/12/05 02:58:51;;;;;;;;;;;;;;;11.31;69.67;101556.78;1261379;23;631;-72
2022/12/05 02:59:41;;;;;;;;;;;;;;;11.32;69.75;101558.53;1262202;23;654;-71
2022/12/05 03:00:31;;;;;;;;;;;;;;;11.33;70.01;101554.91;1261382;23;630;-72
2022/12/05 03:01:22;;;;;;;;;;;;;;;11.31;70.01;101554.13;1261443;23;704;-72
2022/12/05 03:02:13;;;;;;;;;;;;;;;11.31;69.29;101558.59;1256822;23;1905;-72
2022/12/05 03:03:03;;;;;;;;;;;;;;;11.30;69.54;101555.06;1255185;23;590;-72
2022/12/05 03:03:54;;;;;;;;;;;;;;;11.30;69.94;101552.41;1261228;23;652;-72
2022/12/05 03:04:44;;;;;;;;;;;;;;;11.31;69.35;101555.94;1262132;23;649;-72
2022/12/05 03:05:35;;;;;;;;;;;;;;;11.31;69.72;101555.94;1261414;23;647;-72
2022/12/05 03:06:25;;;;;;;;;;;;;;;11.31;69.40;101561.28;1261517;23;658;-72
2022/12/05 03:07:16;;;;;;;;;;;;;;;11.31;69.76;101555.94;1261483;23;610;-72
2022/12/05 03:08:06;;;;;;;;;;;;;;;11.29;70.21;101558.69;1261429;23;618;-72
2022/12/05 03:08:57;;;;;;;;;;;;;;;11.30;69.68;101557.75;1261419;23;610;-73
2022/12/05 03:09:47;;;;;;;;;;;;;;;11.32;69.72;101560.31;1261432;23;681;-72
2022/12/05 03:10:38;;;;;;;;;;;;;;;11.30;69.42;101555.06;1260883;23;634;-72
2022/12/05 03:11:28;;;;;;;;;;;;;;;11.31;69.90;101550.59;1261391;23;638;-72
2022/12/05 03:12:18;;;;;;;;;;;;;;;11.32;70.00;101555.00;1261366;23;669;-73
2022/12/05 03:13:09;;;;;;;;;;;;;;;11.30;70.06;101551.53;1262180;23;633;-73
2022/12/05 03:13:59;;;;;;;;;;;;;;;11.30;69.92;101557.75;1261409;23;618;-73
2022/12/05 03:14:50;;;;;;;;;;;;;;;11.31;69.07;101554.13;1262234;23;585;-72
2022/12/05 03:15:40;;;;;;;;;;;;;;;11.29;69.38;101556.03;1261327;23;614;-72
2022/12/05 03:16:30;;;;;;;;;;;;;;;11.29;70.10;101556.03;1261497;23;656;-72
2022/12/05 03:17:22;;;;;;;;;;;;;;;11.28;69.32;101551.66;1261438;23;641;-72
2022/12/05 03:18:12;;;;;;;;;;;;;;;11.29;70.07;101557.81;1261391;23;677;-72
2022/12/05 03:19:02;;;;;;;;;;;;;;;11.29;70.02;101556.03;1261466;23;586;-72
2022/12/05 03:19:53;;;;;;;;;;;;;;;11.30;70.09;101560.41;1261411;23;637;-72
2022/12/05 03:20:43;;;;;;;;;;;;;;;11.29;69.44;101561.34;1261318;23;788;-72
2022/12/05 03:21:34;;;;;;;;;;;;;;;11.30;69.51;101560.41;1261457;23;594;-72
2022/12/05 03:22:25;;;;;;;;;;;;;;;11.29;69.56;101556.03;1261301;23;1932;-72
2022/12/05 03:23:15;;;;;;;;;;;;;;;11.29;69.85;101560.50;1261414;23;622;-72
2022/12/05 03:24:05;;;;;;;;;;;;;;;11.28;69.21;101562.34;1262324;23;668;-72
2022/12/05 03:24:56;;;;;;;;;;;;;;;11.27;70.23;101555.28;1262315;23;660;-73
2022/12/05 03:25:46;;;;;;;;;;;;;;;11.28;69.33;101562.34;1261381;23;653;-72
2022/12/05 03:26:37;;;;;;;;;;;;;;;11.29;69.52;101566.69;1261406;23;646;-72
2022/12/05 03:27:27;;;;;;;;;;;;;;;11.29;69.51;101558.69;1261599;23;650;-72
2022/12/05 03:28:18;;;;;;;;;;;;;;;11.30;69.43;101564.88;1261190;23;672;-72
2022/12/05 03:29:08;;;;;;;;;;;;;;;11.29;69.90;101558.69;1261342;23;688;-72
2022/12/05 03:30:00;;;;;;;;;;;;;;;11.28;69.45;101557.00;1261357;23;646;-72
2022/12/05 03:30:51;;;;;;;;;;;;;;;11.29;69.52;101553.34;1261410;23;627;-72
2022/12/05 03:31:41;;;;;;;;;;;;;;;11.30;69.58;101557.75;1261421;23;658;-72
2022/12/05 03:32:32;;;;;;;;;;;;;;;11.29;70.07;101556.03;1261472;23;658;-72
2022/12/05 03:33:22;;;;;;;;;;;;;;;11.30;69.34;101564.88;1261451;23;622;-72
2022/12/05 03:34:12;;;;;;;;;;;;;;;11.30;70.02;101562.22;1261300;23;641;-71
2022/12/05 03:35:03;;;;;;;;;;;;;;;11.30;69.54;101564.88;1261370;23;657;-72
2022/12/05 03:35:53;;;;;;;;;;;;;;;11.30;69.54;101567.56;1261357;23;693;-72
2022/12/05 03:36:44;;;;;;;;;;;;;;;11.29;69.73;101553.34;1261407;23;677;-71
2022/12/05 03:37:34;;;;;;;;;;;;;;;11.30;69.37;101565.75;1261384;23;650;-72
2022/12/05 03:38:25;;;;;;;;;;;;;;;11.30;69.43;101562.22;1261409;23;601;-72
2022/12/05 03:39:15;;;;;;;;;;;;;;;11.31;69.72;101569.28;1261506;23;599;-72
2022/12/05 03:40:06;;;;;;;;;;;;;;;11.29;70.08;101566.69;1261371;23;645;-73
2022/12/05 03:40:56;;;;;;;;;;;;;;;11.31;70.03;101569.28;1261382;23;710;-72
2022/12/05 03:41:47;;;;;;;;;;;;;;;11.29;69.17;101572.03;1262157;23;625;-73
2022/12/05 03:42:37;;;;;;;;;;;;;;;11.30;70.25;101568.41;1262153;23;625;-72
2022/12/05 03:43:28;;;;;;;;;;;;;;;11.31;70.01;101571.94;1262126;23;666;-73
2022/12/05 03:44:18;;;;;;;;;;;;;;;11.30;69.38;101575.56;1261527;23;637;-73
2022/12/05 03:45:08;;;;;;;;;;;;;;;11.30;69.45;101568.41;1262249;23;616;-72
2022/12/05 03:45:59;;;;;;;;;;;;;;;11.30;69.15;101564.88;1261330;23;886;-72
2022/12/05 03:46:49;;;;;;;;;;;;;;;11.30;69.36;101571.09;1262201;23;633;-72
2022/12/05 03:47:40;;;;;;;;;;;;;;;11.30;69.99;101557.75;1261291;23;602;-72
2022/12/05 03:48:30;;;;;;;;;;;;;;;11.31;69.37;101570.13;1261336;23;688;-72
2022/12/05 03:49:20;;;;;;;;;;;;;;;11.31;69.90;101569.28;1262126;23;1204;-71
2022/12/05 03:50:11;;;;;;;;;;;;;;;11.30;69.60;101568.41;1262185;23;641;-72
2022/12/05 03:51:01;;;;;;;;;;;;;;;11.29;70.00;101564.03;1261328;23;653;-72
2022/12/05 03:51:52;;;;;;;;;;;;;;;11.30;69.78;101571.09;1261305;23;646;-72
2022/12/05 03:52:42;;;;;;;;;;;;;;;11.30;69.58;101565.75;1261356;23;677;-72
2022/12/05 03:53:33;;;;;;;;;;;;;;;11.31;69.56;101567.47;1261270;23;615;-72
2022/12/05 03:54:23;;;;;;;;;;;;;;;11.32;69.53;101563.00;1260681;23;638;-72
2022/12/05 03:55:13;;;;;;;;;;;;;;;11.31;69.91;101570.13;1261329;23;677;-72
2022/12/05 03:56:04;;;;;;;;;;;;;;;11.30;69.51;101560.41;1261405;23;669;-72
2022/12/05 03:56:54;;;;;;;;;;;;;;;11.31;69.57;101567.47;1261239;23;618;-72
2022/12/05 03:57:45;;;;;;;;;;;;;;;11.31;69.53;101569.28;1261332;23;675;-72
2022/12/05 03:58:35;;;;;;;;;;;;;;;11.30;69.38;101564.88;1261372;23;716;-73
2022/12/05 03:59:26;;;;;;;;;;;;;;;11.29;69.68;101566.69;1261331;23;618;-72
2022/12/05 04:00:17;;;;;;;;;;;;;;;11.31;69.88;101567.47;1262101;23;567;-72
2022/12/05 04:01:08;;;;;;;;;;;;;;;11.30;69.84;101568.41;1261369;23;654;-72
2022/12/05 04:02:00;;;;;;;;;;;;;;;11.30;69.85;101568.41;1256625;23;657;-73
2022/12/05 04:02:50;;;;;;;;;;;;;;;11.31;69.60;101571.94;1255030;23;677;-72
2022/12/05 04:03:40;;;;;;;;;;;;;;;11.31;69.68;101569.28;1261295;23;653;-71
2022/12/05 04:04:31;;;;;;;;;;;;;;;11.30;69.61;101568.41;1262104;23;656;-72
2022/12/05 04:05:21;;;;;;;;;;;;;;;11.30;69.52;101581.75;1262007;23;637;-72
2022/12/05 04:06:12;;;;;;;;;;;;;;;11.30;69.51;101571.09;1261321;23;646;-72
2022/12/05 04:07:02;;;;;;;;;;;;;;;11.30;69.66;101579.09;1261243;23;674;-72
2022/12/05 04:07:53;;;;;;;;;;;;;;;11.30;69.77;101576.41;1261406;23;641;-72
2022/12/05 04:08:43;;;;;;;;;;;;;;;11.29;69.60;101574.69;1260718;23;781;-71
2022/12/05 04:09:33;;;;;;;;;;;;;;;11.30;69.52;101575.56;1261322;23;594;-72
2022/12/05 04:10:24;;;;;;;;;;;;;;;11.30;69.98;101576.41;1261215;23;665;-72
2022/12/05 04:11:14;;;;;;;;;;;;;;;11.30;69.78;101580.91;1261403;23;634;-71
2022/12/05 04:12:05;;;;;;;;;;;;;;;11.30;69.38;101576.41;1261388;23;599;-72
2022/12/05 04:12:55;;;;;;;;;;;;;;;11.30;69.43;101573.75;1261424;23;633;-72
2022/12/05 04:13:45;;;;;;;;;;;;;;;11.29;69.31;101574.69;1256747;23;614;-72
2022/12/05 04:14:36;;;;;;;;;;;;;;;11.31;69.76;101577.28;1254926;23;669;-71
2022/12/05 04:15:26;;;;;;;;;;;;;;;11.30;69.49;101581.75;1261028;23;674;-72
2022/12/05 04:17:26;;;;;;;;;;;;;;;11.31;70.03;101591.47;1262076;23;661;-71
2022/12/05 04:18:16;;;;;;;;;;;;;;;11.30;69.78;101584.44;1261249;23;606;-72
2022/12/05 04:19:07;;;;;;;;;;;;;;;11.30;69.85;101581.75;1261471;23;681;-72
2022/12/05 04:22:16;;;;;;;;;;;;;;;11.29;69.51;101574.69;1262050;23;1893;-72
2022/12/05 04:23:06;;;;;;;;;;;;;;;11.29;69.87;101579.16;1261524;23;668;-72
2022/12/05 04:26:19;;;;;;;;;;;;;;;11.29;69.76;101590.72;1249594;23;677;-72
2022/12/05 04:27:09;;;;;;;;;;;;;;;11.28;69.37;101581.00;1249742;23;1067;-72
2022/12/05 04:28:00;;;;;;;;;;;;;;;11.29;70.04;101580.03;1249805;23;649;-72
2022/12/05 04:28:50;;;;;;;;;;;;;;;11.28;70.26;101581.00;1249676;23;682;-72
2022/12/05 04:29:41;;;;;;;;;;;;;;;11.28;69.61;101577.47;1249819;23;591;-72
2022/12/05 04:30:31;;;;;;;;;;;;;;;11.28;69.50;101572.16;1249618;23;1078;-72
2022/12/05 04:31:21;;;;;;;;;;;;;;;11.28;69.41;101575.69;1249736;23;626;-72